Time;durP1;ratioP1;P1;durP2;ratioP2;P2;SDS_P1;SDS_P2;PMS_P1;PMS_P2;Temp;Humidity;BMP_temperature;BMP_pressure;BME280_temperature;BME280_humidity;BME280_pressure;Samples;Min_cycle;Max_cycle;Signal;HPM_P1;HPM_P2
2022/02/02 00:04:49;;;;;;;17.10;8.27;;;2.90;81.50;;;;;;5032174;28;20055;-69
2022/02/02 00:08:11;;;;;;;14.80;8.00;;;2.70;83.30;;;;;;5031899;28;20053;-69
2022/02/02 00:11:48;;;;;;;19.30;9.77;;;2.50;86.30;;;;;;5031576;28;20053;-69
2022/02/02 00:14:58;;;;;;;17.48;7.60;;;2.50;87.50;;;;;;5031609;28;20392;-69
2022/02/02 00:21:23;;;;;;;14.05;7.43;;;2.50;88.90;;;;;;5031659;28;20049;-68
2022/02/02 00:24:48;;;;;;;18.08;9.55;;;2.30;90.00;;;;;;5031405;28;20056;-68
2022/02/02 00:27:57;;;;;;;16.13;8.80;;;2.30;90.70;;;;;;5031476;28;20847;-69
2022/02/02 00:31:06;;;;;;;21.48;11.57;;;2.20;91.10;;;;;;5030618;28;20052;-69
2022/02/02 00:34:15;;;;;;;24.83;13.15;;;2.10;91.10;;;;;;5031517;28;20060;-68
2022/02/02 00:37:19;;;;;;;23.58;11.68;;;2.10;92.00;;;;;;5031318;28;20499;-68
2022/02/02 00:40:23;;;;;;;26.38;12.55;;;2.10;92.50;;;;;;5030655;28;20104;-68
2022/02/02 00:43:28;;;;;;;20.10;11.20;;;2.20;93.00;;;;;;5031366;28;20052;-68
2022/02/02 00:46:32;;;;;;;20.70;11.60;;;2.10;93.80;;;;;;5031049;28;20054;-68
2022/02/02 00:49:36;;;;;;;18.17;10.50;;;2.00;94.90;;;;;;5030747;28;20056;-69
2022/02/02 00:52:42;;;;;;;20.95;11.00;;;2.00;95.00;;;;;;5031074;28;20049;-68
2022/02/02 00:55:46;;;;;;;18.90;10.10;;;2.10;94.90;;;;;;5030916;28;20049;-68
2022/02/02 00:58:51;;;;;;;18.25;10.38;;;2.10;95.10;;;;;;5030475;28;20048;-68
2022/02/02 01:01:55;;;;;;;13.90;7.30;;;2.20;94.90;;;;;;5030060;28;20053;-70
2022/02/02 01:04:58;;;;;;;14.65;8.32;;;2.40;99.00;;;;;;5031102;28;20048;-68
2022/02/02 01:21:07;;;;;;;11.30;6.25;;;3.30;99.90;;;;;;5030379;28;20049;-68
2022/02/02 01:27:49;;;;;;;14.10;8.25;;;3.70;99.90;;;;;;5030449;28;20044;-71
2022/02/02 01:30:54;;;;;;;17.25;7.20;;;3.50;99.90;;;;;;5029719;28;20052;-68
2022/02/02 01:33:58;;;;;;;13.15;5.10;;;3.40;99.90;;;;;;5030514;28;20052;-70
2022/02/02 01:37:03;;;;;;;12.30;7.10;;;3.50;99.90;;;;;;5030136;28;20057;-70
2022/02/02 01:40:15;;;;;;;12.30;7.45;;;3.30;99.90;;;;;;5029685;28;20495;-70
2022/02/02 01:43:28;;;;;;;14.40;5.50;;;3.30;99.90;;;;;;5030317;28;20040;-70
2022/02/02 01:46:34;;;;;;;16.10;4.85;;;3.40;99.90;;;;;;5030168;28;20396;-70
2022/02/02 01:56:34;;;;;;;;;;;4.00;99.90;;;;;;5030707;28;19935;-68
2022/02/02 01:59:39;;;;;;;9.38;3.78;;;4.10;99.90;;;;;;5029874;28;19924;-70
2022/02/02 02:02:43;;;;;;;8.10;3.42;;;4.10;99.90;;;;;;5029035;28;20033;-70
2022/02/02 02:05:47;;;;;;;10.60;3.08;;;4.10;99.90;;;;;;5029909;28;20030;-68
2022/02/02 02:08:52;;;;;;;6.45;3.00;;;4.30;99.90;;;;;;5029595;28;20056;-70
2022/02/02 02:11:57;;;;;;;9.30;3.63;;;4.40;99.90;;;;;;5029824;28;20045;-70
2022/02/02 02:15:05;;;;;;;15.02;4.30;;;4.60;99.90;;;;;;5030009;28;20037;-68
2022/02/02 02:18:09;;;;;;;10.30;3.83;;;4.50;99.90;;;;;;5029456;28;20052;-70
2022/02/02 02:21:16;;;;;;;15.27;4.55;;;4.50;99.90;;;;;;5029846;28;20048;-68
2022/02/02 02:24:20;;;;;;;19.08;6.95;;;4.30;99.90;;;;;;5029786;28;20056;-71
2022/02/02 02:27:25;;;;;;;17.38;8.60;;;3.70;99.90;;;;;;5029696;28;20044;-70
2022/02/02 02:30:46;;;;;;;16.20;8.70;;;3.00;99.90;;;;;;5029547;28;20056;-70
2022/02/02 02:56:55;;;;;;;;;;;0.70;99.90;;;;;;5030130;28;20041;-70
2022/02/02 03:00:55;;;;;;;18.40;11.07;;;0.90;99.90;;;;;;5030714;28;19923;-69
2022/02/02 03:51:29;;;;;;;19.23;8.52;;;1.50;99.90;;;;;;5032100;28;20064;-69
2022/02/02 04:07:43;;;;;;;33.13;14.32;;;1.40;99.90;;;;;;5032282;28;20491;-69
2022/02/02 04:10:48;;;;;;;31.65;14.50;;;1.40;99.90;;;;;;5031732;28;20049;-70
2022/02/02 04:51:40;;;;;;;29.83;13.82;;;0.60;99.90;;;;;;5031315;28;20064;-70
2022/02/02 05:07:14;;;;;;;22.45;13.48;;;0.20;99.90;;;;;;5031059;28;20040;-70
2022/02/02 05:17:28;;;;;;;25.05;13.73;;;0.30;99.90;;;;;;5030165;28;20041;-69
2022/02/02 05:51:01;;;;;;;26.02;11.77;;;0.60;99.90;;;;;;5030637;28;20048;-69
2022/02/02 05:54:08;;;;;;;24.33;11.57;;;0.50;99.90;;;;;;5030487;28;20049;-70
2022/02/02 05:57:14;;;;;;;23.73;11.77;;;0.40;99.90;;;;;;5030052;28;20143;-69
2022/02/02 06:00:18;;;;;;;24.27;12.40;;;0.30;99.90;;;;;;5030335;28;20372;-69
2022/02/02 06:03:40;;;;;;;24.02;11.73;;;0.20;99.90;;;;;;5031098;28;20060;-70
2022/02/02 06:06:47;;;;;;;19.73;11.07;;;0.10;99.90;;;;;;5030263;28;20045;-70
2022/02/02 06:09:51;;;;;;;25.45;13.27;;;0.10;99.90;;;;;;5029841;28;20056;-69
2022/02/02 06:13:00;;;;;;;20.13;11.55;;;0.00;99.90;;;;;;5029669;28;20052;-70
2022/02/02 06:16:05;;;;;;;20.58;11.48;;;0.00;99.90;;;;;;5029615;28;20056;-69
2022/02/02 06:19:08;;;;;;;23.00;12.75;;;-0.10;99.90;;;;;;5029320;28;20066;-69
2022/02/02 06:22:21;;;;;;;25.83;12.30;;;-0.10;99.90;;;;;;5030125;28;20052;-69
2022/02/02 06:25:32;;;;;;;22.20;11.90;;;-0.10;99.90;;;;;;5028322;28;20044;-69
2022/02/02 06:28:36;;;;;;;23.80;12.13;;;-0.10;99.90;;;;;;5029436;28;20491;-70
2022/02/02 06:31:41;;;;;;;22.15;12.15;;;-0.10;99.90;;;;;;5029818;28;20342;-69
2022/02/02 06:34:46;;;;;;;20.58;11.57;;;-0.10;99.90;;;;;;5032018;28;20548;-69
2022/02/02 06:37:50;;;;;;;26.10;11.77;;;-0.20;99.90;;;;;;5033809;28;20495;-69
2022/02/02 06:40:57;;;;;;;25.02;12.18;;;-0.10;99.90;;;;;;5033770;28;20036;-69
2022/02/02 06:44:06;;;;;;;33.72;12.25;;;-0.10;99.90;;;;;;5033592;28;20033;-70
2022/02/02 06:47:10;;;;;;;21.02;11.65;;;-0.10;99.90;;;;;;5033509;28;20331;-69
2022/02/02 06:50:25;;;;;;;24.38;11.10;;;-0.10;99.90;;;;;;5032878;28;20507;-69
2022/02/02 06:53:42;;;;;;;20.77;11.48;;;-0.10;99.90;;;;;;5033356;28;20037;-69
2022/02/02 06:57:15;;;;;;;23.60;11.07;;;-0.10;99.90;;;;;;5033245;28;20048;-70
2022/02/02 07:00:40;;;;;;;;;;;0.00;99.90;;;;;;5032571;28;20044;-70
2022/02/02 07:07:18;;;;;;;18.65;9.95;;;0.50;99.90;;;;;;5032643;28;20041;-70
2022/02/02 07:10:43;;;;;;;21.20;9.95;;;3.10;99.90;;;;;;5020035;28;20408;-72
2022/02/02 07:14:17;;;;;;;20.30;9.93;;;6.10;99.90;;;;;;5027469;28;20052;-69
2022/02/02 07:17:32;;;;;;;25.17;12.23;;;8.70;99.90;;;;;;5028968;28;20048;-67
2022/02/02 07:30:27;;;;;;;21.25;11.40;;;15.40;84.40;;;;;;5029779;28;20428;-68
2022/02/02 07:33:37;;;;;;;19.33;11.43;;;16.30;79.30;;;;;;5026125;28;20049;-68
2022/02/02 07:36:48;;;;;;;14.82;9.23;;;17.10;75.70;;;;;;5023871;28;20385;-67
2022/02/02 07:39:56;;;;;;;13.23;8.90;;;17.80;72.10;;;;;;5012648;28;20052;-68
2022/02/02 07:43:04;;;;;;;14.32;8.95;;;19.10;70.20;;;;;;5017455;28;20049;-68
2022/02/02 07:46:09;;;;;;;13.23;8.25;;;20.00;64.90;;;;;;5030440;28;20041;-68
2022/02/02 07:49:20;;;;;;;11.88;7.25;;;20.00;63.50;;;;;;5025831;28;20044;-68
2022/02/02 07:52:28;;;;;;;11.15;7.32;;;20.90;61.60;;;;;;5030453;28;20037;-67
2022/02/02 07:55:35;;;;;;;10.35;7.20;;;21.00;60.70;;;;;;5033452;28;20032;-68
2022/02/02 07:58:42;;;;;;;12.10;7.93;;;21.60;59.00;;;;;;5031477;28;20045;-68
2022/02/02 08:01:49;;;;;;;11.05;7.40;;;21.90;57.90;;;;;;5028700;28;20037;-69
2022/02/02 08:04:53;;;;;;;20.10;9.73;;;22.50;57.10;;;;;;5027781;28;20036;-70
2022/02/02 08:08:15;;;;;;;20.70;12.18;;;23.00;56.70;;;;;;5031084;28;20051;-68
2022/02/02 08:11:30;;;;;;;16.92;10.70;;;23.30;55.70;;;;;;5029566;28;20061;-68
2022/02/02 08:14:36;;;;;;;18.17;11.18;;;24.10;54.20;;;;;;5030947;28;20068;-68
2022/02/02 08:17:41;;;;;;;12.82;8.38;;;24.90;52.80;;;;;;5033092;28;20389;-68
2022/02/02 08:20:45;;;;;;;11.00;7.03;;;25.30;51.90;;;;;;5031816;28;20052;-68
2022/02/02 08:23:50;;;;;;;10.55;6.68;;;23.30;50.40;;;;;;5030570;28;20388;-68
2022/02/02 08:26:55;;;;;;;14.90;7.70;;;20.10;53.70;;;;;;5031044;28;20045;-68
2022/02/02 08:30:00;;;;;;;8.25;6.30;;;21.60;53.20;;;;;;5025053;28;20052;-68
2022/02/02 08:33:07;;;;;;;12.20;6.78;;;23.10;51.80;;;;;;5027745;28;20708;-68
2022/02/02 08:36:17;;;;;;;9.52;7.40;;;22.80;51.90;;;;;;5029510;28;20392;-68
2022/02/02 08:39:47;;;;;;;10.50;7.23;;;20.90;52.90;;;;;;5030078;28;20041;-70
2022/02/02 08:42:48;;;;;;;9.85;7.53;;;19.50;52.80;;;;;;5031478;28;20550;-71
2022/02/02 08:45:58;;;;;;;10.48;7.50;;;18.50;54.70;;;;;;5028165;28;20084;-70
2022/02/02 08:49:07;;;;;;;9.75;7.10;;;18.60;54.90;;;;;;5030702;28;20052;-68
2022/02/02 08:52:13;;;;;;;10.98;8.52;;;19.60;54.60;;;;;;5024440;28;20044;-68
2022/02/02 08:55:21;;;;;;;15.77;9.50;;;15.80;58.10;;;;;;5028769;28;20045;-69
2022/02/02 08:58:35;;;;;;;14.32;8.88;;;14.30;60.60;;;;;;5023000;28;20040;-68
2022/02/02 09:01:39;;;;;;;11.30;8.73;;;17.60;57.00;;;;;;5031222;28;20040;-68
2022/02/02 09:08:07;;;;;;;12.35;9.00;;;17.10;56.60;;;;;;5025217;28;20036;-68
2022/02/02 09:25:03;;;;;;;11.07;8.10;;;22.70;52.80;;;;;;5028185;28;20052;-68
2022/02/02 09:34:55;;;;;;;12.30;8.35;;;27.10;49.90;;;;;;5022070;28;20483;-68
2022/02/02 09:38:01;;;;;;;10.60;7.80;;;28.40;48.90;;;;;;5015927;28;20102;-69
2022/02/02 09:41:30;;;;;;;12.07;8.38;;;29.50;48.00;;;;;;5026805;28;20495;-68
2022/02/02 09:44:39;;;;;;;10.18;7.80;;;26.00;45.50;;;;;;5024223;28;20040;-68
2022/02/02 09:47:51;;;;;;;14.02;7.65;;;27.00;47.70;;;;;;5028981;28;20048;-69
2022/02/02 09:51:03;;;;;;;12.25;7.55;;;28.60;47.70;;;;;;5028460;28;20044;-69
2022/02/02 09:54:17;;;;;;;14.88;8.50;;;29.00;47.20;;;;;;5030425;28;20048;-69
2022/02/02 10:00:45;;;;;;;10.25;7.15;;;28.40;45.40;;;;;;5024090;28;20044;-69
2022/02/02 10:04:15;;;;;;;11.65;8.63;;;26.60;47.00;;;;;;5030533;28;20084;-69
2022/02/02 10:16:51;;;;;;;15.75;8.27;;;25.10;48.20;;;;;;5030328;28;20044;-69
2022/02/02 10:19:56;;;;;;;9.10;7.43;;;27.60;48.60;;;;;;5025908;28;20045;-69
2022/02/02 10:23:01;;;;;;;14.05;8.45;;;29.80;47.50;;;;;;5029613;28;20392;-70
2022/02/02 10:26:20;;;;;;;10.70;8.10;;;31.20;46.60;;;;;;5030095;28;20052;-69
2022/02/02 10:29:37;;;;;;;12.07;8.00;;;32.40;46.10;;;;;;5026142;28;20044;-69
2022/02/02 10:32:43;;;;;;;8.27;7.18;;;32.70;46.10;;;;;;5024129;28;20407;-70
2022/02/02 10:35:58;;;;;;;14.02;7.45;;;33.30;45.80;;;;;;5024818;28;20064;-70
2022/02/02 10:42:11;;;;;;;10.30;6.90;;;33.60;45.30;;;;;;5030130;28;20052;-69
2022/02/02 10:45:27;;;;;;;12.07;7.85;;;32.70;45.90;;;;;;5013814;28;20048;-69
2022/02/02 10:48:37;;;;;;;10.75;7.68;;;31.30;44.60;;;;;;5026490;28;20045;-69
2022/02/02 10:51:51;;;;;;;;;;;32.00;45.70;;;;;;5029810;28;20048;-69
2022/02/02 11:01:45;;;;;;;11.82;7.93;;;28.30;48.90;;;;;;5029130;28;20053;-71
2022/02/02 11:08:14;;;;;;;10.55;7.63;;;31.10;46.80;;;;;;5028120;28;20032;-72
2022/02/02 11:11:19;;;;;;;12.00;6.75;;;32.10;46.10;;;;;;5028398;28;20044;-69
2022/02/02 11:14:42;;;;;;;13.73;6.85;;;31.60;46.70;;;;;;5023251;28;20052;-70
2022/02/02 11:18:06;;;;;;;9.60;6.70;;;30.90;46.40;;;;;;5029062;28;20040;-71
2022/02/02 11:21:15;;;;;;;10.40;6.15;;;29.80;48.40;;;;;;5028437;28;20503;-71
2022/02/02 11:24:20;;;;;;;10.85;5.35;;;31.30;49.00;;;;;;5032194;28;20036;-71
2022/02/02 11:27:38;;;;;;;7.30;5.13;;;32.80;49.00;;;;;;5013007;28;20065;-69
2022/02/02 11:30:42;;;;;;;8.82;4.50;;;34.70;47.60;;;;;;5017327;28;20496;-70
2022/02/02 11:33:53;;;;;;;8.18;4.80;;;35.50;47.90;;;;;;5032792;28;20082;-70
2022/02/02 11:37:00;;;;;;;7.25;3.45;;;36.60;47.80;;;;;;5023159;28;20426;-69
2022/02/02 11:40:09;;;;;;;9.20;4.22;;;37.20;47.50;;;;;;5032081;28;20048;-69
2022/02/02 11:50:52;;;;;;;5.75;2.80;;;36.90;47.90;;;;;;5031361;28;20040;-69
2022/02/02 11:53:56;;;;;;;5.68;3.45;;;36.80;47.10;;;;;;5029347;28;20036;-70
2022/02/02 11:57:10;;;;;;;10.77;2.90;;;36.60;47.50;;;;;;5031406;28;20045;-70
2022/02/02 12:07:03;;;;;;;11.90;3.10;;;36.70;47.00;;;;;;5028790;28;20041;-69
2022/02/02 12:10:16;;;;;;;6.47;3.60;;;36.50;47.50;;;;;;5030807;28;20036;-70
2022/02/02 12:48:05;;;;;;;8.35;3.65;;;35.30;49.10;;;;;;5027060;28;20048;-70
2022/02/02 12:57:54;;;;;;;6.45;3.10;;;36.00;48.40;;;;;;5026481;28;20036;-69
2022/02/02 13:01:13;;;;;;;6.50;2.90;;;36.00;48.10;;;;;;5020257;28;20542;-71
2022/02/02 13:04:28;;;;;;;9.02;3.00;;;36.30;48.00;;;;;;5024255;28;20041;-69
2022/02/02 13:07:36;;;;;;;13.55;3.67;;;35.90;47.90;;;;;;5020317;28;20060;-71
2022/02/02 13:10:40;;;;;;;6.65;3.25;;;34.70;48.60;;;;;;5026685;28;20044;-69
2022/02/02 13:13:47;;;;;;;7.00;3.65;;;33.20;49.80;;;;;;5026056;28;20060;-71
2022/02/02 13:17:00;;;;;;;7.78;3.03;;;32.50;50.10;;;;;;5026747;28;20052;-71
2022/02/02 13:20:09;;;;;;;7.97;3.50;;;32.50;50.90;;;;;;5026817;28;20049;-73
2022/02/02 13:23:22;;;;;;;8.57;3.97;;;32.80;50.80;;;;;;5030643;28;20052;-71
2022/02/02 13:29:46;;;;;;;10.57;3.67;;;31.50;52.30;;;;;;5026816;28;20048;-71
2022/02/02 13:32:52;;;;;;;11.23;3.58;;;31.30;52.30;;;;;;5028856;28;20044;-72
2022/02/02 13:36:49;;;;;;;8.60;3.80;;;31.70;51.90;;;;;;5030025;28;20048;-72
2022/02/02 13:47:01;;;;;;;10.20;4.28;;;30.40;53.70;;;;;;5028718;28;20052;-71
2022/02/02 13:50:23;;;;;;;8.60;3.75;;;31.10;53.20;;;;;;5023871;28;20056;-71
2022/02/02 14:00:22;;;;;;;9.18;3.85;;;31.10;53.00;;;;;;5024682;28;20107;-71
2022/02/02 14:33:32;;;;;;;12.60;3.45;;;28.20;55.50;;;;;;5025639;28;20044;-70
2022/02/02 14:36:38;;;;;;;75.85;7.60;;;28.20;55.70;;;;;;5029296;28;20319;-68
2022/02/02 14:39:55;;;;;;;14.38;4.68;;;28.00;55.80;;;;;;5023016;28;20045;-70
2022/02/02 14:43:03;;;;;;;11.55;3.80;;;27.90;56.60;;;;;;5025117;28;20048;-70
2022/02/02 14:46:11;;;;;;;9.40;3.70;;;27.70;56.40;;;;;;5023806;28;20048;-70
2022/02/02 14:49:22;;;;;;;9.15;3.38;;;27.40;57.40;;;;;;5022743;28;20491;-70
2022/02/02 14:53:21;;;;;;;13.23;3.65;;;27.30;57.20;;;;;;5029112;28;20045;-70
2022/02/02 15:32:32;;;;;;;16.48;4.50;;;23.50;62.70;;;;;;5032329;28;20048;-70
2022/02/02 15:35:38;;;;;;;19.45;3.78;;;23.30;62.90;;;;;;5013297;28;20041;-69
2022/02/02 15:38:48;;;;;;;14.65;5.13;;;22.90;63.80;;;;;;5019368;28;20513;-69
2022/02/02 15:42:16;;;;;;;15.63;5.03;;;22.50;64.90;;;;;;5032043;28;20037;-69
2022/02/02 15:58:29;;;;;;;22.48;9.88;;;20.40;69.90;;;;;;5024284;28;20097;-69
2022/02/02 16:04:54;;;;;;;13.55;5.82;;;19.30;72.70;;;;;;5028785;28;20076;-69
2022/02/02 16:08:04;;;;;;;14.20;5.70;;;18.70;74.50;;;;;;5030978;28;20495;-69
2022/02/02 16:14:24;;;;;;;50.70;26.48;;;17.10;79.70;;;;;;5028230;28;20420;-70
2022/02/02 16:37:38;;;;;;;19.75;10.68;;;13.40;97.20;;;;;;5011753;28;20045;-69
2022/02/02 16:40:49;;;;;;;21.48;7.93;;;13.20;99.40;;;;;;5011995;28;20052;-68
2022/02/02 16:43:53;;;;;;;32.78;17.50;;;12.90;99.90;;;;;;5012322;28;20041;-69
2022/02/02 16:47:00;;;;;;;42.65;18.90;;;12.80;99.90;;;;;;5011552;28;20041;-68
2022/02/02 16:50:07;;;;;;;35.45;16.55;;;12.60;99.90;;;;;;5011484;28;20408;-68
2022/02/02 17:28:33;;;;;;;33.05;15.88;;;11.70;99.90;;;;;;5009873;28;20048;-68
2022/02/02 17:33:14;;;;;;;34.55;16.48;;;11.50;99.90;;;;;;5010437;28;20049;-68
2022/02/02 17:39:39;;;;;;;69.78;35.63;;;11.30;99.90;;;;;;5010447;28;20219;-68
2022/02/02 18:17:05;;;;;;;56.22;28.83;;;10.80;99.90;;;;;;5011437;28;20045;-68
2022/02/02 18:19:51;;;;;;;38.15;18.52;;;10.80;99.90;;;;;;5010272;28;20049;-68
2022/02/02 18:23:45;;;;;;;31.67;14.23;;;10.70;99.90;;;;;;5010362;28;20634;-68
2022/02/02 18:29:48;;;;;;;61.92;33.88;;;10.40;99.90;;;;;;5010126;28;20049;-68
2022/02/02 18:56:22;;;;;;;33.22;16.65;;;9.80;99.90;;;;;;5013848;28;20492;-68
2022/02/02 18:59:53;;;;;;;60.30;24.80;;;9.80;99.90;;;;;;5013422;28;20045;-68
2022/02/02 19:15:07;;;;;;;60.78;39.95;;;9.60;99.90;;;;;;5013878;28;20053;-69
2022/02/02 19:37:25;;;;;;;33.92;17.85;;;9.40;99.90;;;;;;5013076;28;20068;-68
2022/02/02 20:06:59;;;;;;;34.25;12.43;;;9.20;99.90;;;;;;5012475;28;20044;-69
2022/02/02 20:13:11;;;;;;;25.65;11.10;;;9.10;99.90;;;;;;5023458;28;20384;-69
2022/02/02 20:16:15;;;;;;;24.67;10.05;;;9.00;99.90;;;;;;5000185;28;20041;-69
2022/02/02 20:19:19;;;;;;;22.58;7.72;;;9.00;99.90;;;;;;5012455;28;20049;-69
2022/02/02 20:22:27;;;;;;;29.02;7.93;;;9.00;99.90;;;;;;5012886;28;20076;-68
2022/02/02 20:25:34;;;;;;;20.50;7.10;;;9.00;99.90;;;;;;5022752;28;20381;-68
2022/02/02 20:28:40;;;;;;;31.70;15.93;;;9.00;99.90;;;;;;5011682;28;20045;-69
2022/02/02 20:31:44;;;;;;;38.78;17.95;;;9.00;99.90;;;;;;5012544;28;20064;-68
2022/02/02 20:34:48;;;;;;;75.88;32.30;;;8.80;99.90;;;;;;5012069;28;20057;-69
2022/02/02 20:37:52;;;;;;;125.70;54.65;;;8.70;99.90;;;;;;5012531;28;20037;-68
2022/02/02 20:40:56;;;;;;;214.55;88.85;;;8.60;99.90;;;;;;5012717;28;20048;-69
2022/02/02 20:44:04;;;;;;;156.65;71.32;;;8.40;99.90;;;;;;5012798;28;20053;-69
2022/02/02 21:00:19;;;;;;;83.82;36.72;;;8.30;99.90;;;;;;5013358;28;20045;-69
2022/02/02 21:02:03;;;;;;;38.78;15.32;;;8.10;99.90;;;;;;5010768;28;20049;-68
2022/02/02 21:07:54;;;;;;;35.22;16.27;;;8.00;99.90;;;;;;5022191;28;20482;-69
2022/02/02 21:11:01;;;;;;;26.27;10.30;;;8.00;99.90;;;;;;5012567;28;20291;-69
2022/02/02 21:14:05;;;;;;;32.63;10.68;;;8.00;99.90;;;;;;5012699;28;20049;-69
2022/02/02 21:17:21;;;;;;;35.08;11.82;;;8.10;99.90;;;;;;5011100;28;20045;-69
2022/02/02 21:20:39;;;;;;;41.17;14.38;;;8.20;99.90;;;;;;5012067;28;20041;-69
2022/02/02 21:30:12;;;;;;;;;;;8.10;99.90;;;;;;5011380;28;20053;-69
2022/02/02 21:33:18;;;;;;;35.50;12.98;;;8.10;99.90;;;;;;5011249;28;19916;-68
2022/02/02 21:36:22;;;;;;;28.45;14.00;;;8.10;99.90;;;;;;5011745;28;20540;-69
2022/02/02 21:39:28;;;;;;;37.03;17.33;;;8.10;99.90;;;;;;5011570;28;20117;-69
2022/02/02 21:42:32;;;;;;;34.67;14.52;;;8.10;99.90;;;;;;5021639;28;20052;-69
2022/02/02 21:45:36;;;;;;;59.83;19.67;;;8.10;99.90;;;;;;5012098;28;20048;-69
2022/02/02 21:48:42;;;;;;;47.40;20.90;;;8.10;99.90;;;;;;5010895;28;20049;-69
2022/02/02 21:51:59;;;;;;;39.03;18.45;;;8.00;99.90;;;;;;5011366;28;20045;-69
2022/02/02 21:55:04;;;;;;;67.72;29.83;;;7.90;99.90;;;;;;5012753;28;20692;-68
2022/02/02 21:58:11;;;;;;;55.58;26.75;;;7.90;99.90;;;;;;5010380;28;20056;-69
2022/02/02 22:01:16;;;;;;;37.28;14.45;;;7.90;99.90;;;;;;5010142;28;20081;-69
2022/02/02 22:04:20;;;;;;;26.17;11.23;;;7.50;99.90;;;;;;5010162;28;20045;-68
2022/02/02 22:07:24;;;;;;;36.40;11.77;;;7.20;99.90;;;;;;5011891;28;20041;-68
2022/02/02 22:10:28;;;;;;;28.73;11.65;;;7.00;99.90;;;;;;5010557;28;20496;-68
2022/02/02 22:13:41;;;;;;;40.17;12.80;;;6.90;99.90;;;;;;5010777;28;20401;-68
2022/02/02 22:16:47;;;;;;;26.75;13.43;;;6.90;99.90;;;;;;5010434;28;20381;-68
2022/02/02 22:19:55;;;;;;;40.42;14.52;;;6.90;99.90;;;;;;5009936;28;20124;-68
2022/02/02 22:22:59;;;;;;;49.67;17.75;;;6.90;99.90;;;;;;5010410;28;20057;-69
2022/02/02 22:26:03;;;;;;;39.80;17.20;;;6.90;99.90;;;;;;5010429;28;20067;-69
2022/02/02 22:29:07;;;;;;;39.47;20.23;;;6.80;99.90;;;;;;5010221;28;20044;-68
2022/02/02 22:32:12;;;;;;;40.33;18.13;;;6.90;99.90;;;;;;5010068;28;20057;-68
2022/02/02 22:35:16;;;;;;;25.60;12.00;;;6.90;99.90;;;;;;5009854;28;20392;-68
2022/02/02 22:38:20;;;;;;;26.70;10.73;;;7.00;99.90;;;;;;5009673;28;20056;-69
2022/02/02 22:41:26;;;;;;;28.48;10.98;;;7.00;99.90;;;;;;5009949;28;20053;-69
2022/02/02 22:44:31;;;;;;;38.90;16.45;;;7.10;99.90;;;;;;5010269;28;20045;-69
2022/02/02 22:47:37;;;;;;;24.52;14.35;;;7.00;99.90;;;;;;5009765;28;20396;-69
2022/02/02 22:50:41;;;;;;;32.72;16.50;;;7.10;99.90;;;;;;5010238;28;20067;-68
2022/02/02 22:53:45;;;;;;;39.15;16.35;;;7.10;99.90;;;;;;5009998;28;20700;-68
2022/02/02 22:56:50;;;;;;;35.20;16.10;;;7.00;99.90;;;;;;5009854;28;20104;-69
2022/02/02 22:59:55;;;;;;;31.50;15.98;;;6.90;99.90;;;;;;5008606;28;20523;-68
2022/02/02 23:03:04;;;;;;;43.00;21.10;;;6.90;99.90;;;;;;5009968;28;20045;-68
2022/02/02 23:06:08;;;;;;;36.58;19.13;;;6.90;99.90;;;;;;5009496;28;20049;-69
2022/02/02 23:09:14;;;;;;;33.88;14.48;;;6.90;99.90;;;;;;5009714;28;20045;-69
2022/02/02 23:12:21;;;;;;;45.40;17.35;;;6.80;99.90;;;;;;5010224;28;20048;-70
2022/02/02 23:15:33;;;;;;;41.67;14.23;;;6.80;99.90;;;;;;5010277;28;20053;-70
2022/02/02 23:18:39;;;;;;;37.30;15.18;;;6.80;99.90;;;;;;5013303;28;20045;-70
2022/02/02 23:21:45;;;;;;;33.25;16.77;;;6.70;99.90;;;;;;5013528;28;20049;-70
2022/02/02 23:24:53;;;;;;;27.88;14.13;;;6.60;99.90;;;;;;5013410;28;20049;-71
2022/02/02 23:27:58;;;;;;;27.48;13.82;;;6.60;99.90;;;;;;5012917;28;20044;-70
2022/02/02 23:31:05;;;;;;;34.13;14.73;;;6.50;99.90;;;;;;5012749;28;20045;-70
2022/02/02 23:34:13;;;;;;;36.40;16.17;;;6.40;99.90;;;;;;5013428;28;20049;-70
2022/02/02 23:37:16;;;;;;;48.60;19.98;;;6.30;99.90;;;;;;5012989;28;20052;-70
2022/02/02 23:40:21;;;;;;;38.47;18.75;;;6.20;99.90;;;;;;5012777;28;20049;-71
2022/02/02 23:43:26;;;;;;;38.20;19.95;;;6.10;99.90;;;;;;5013041;28;20061;-70
2022/02/02 23:46:31;;;;;;;39.00;16.70;;;6.10;99.90;;;;;;5012874;28;20049;-70
2022/02/02 23:49:47;;;;;;;28.83;14.75;;;6.10;99.90;;;;;;5012216;28;20503;-70
2022/02/02 23:52:55;;;;;;;33.20;16.05;;;6.00;99.90;;;;;;5012911;28;20400;-70
2022/02/02 23:56:16;;;;;;;40.85;18.58;;;6.00;99.90;;;;;;5023048;28;20033;-70
2022/02/02 23:59:32;;;;;;;39.22;17.08;;;5.90;99.90;;;;;;5011661;28;20057;-70
